sensor_id;sensor_type;location;lat;lon;timestamp;temperature;humidity
25906;DHT22;13713;52.552;13.204;2023-08-21T00:01:28;26.40;69.40
25906;DHT22;13713;52.552;13.204;2023-08-21T00:03:54;26.40;69.50
25906;DHT22;13713;52.552;13.204;2023-08-21T00:06:20;26.40;69.50
25906;DHT22;13713;52.552;13.204;2023-08-21T00:08:45;26.40;69.50
25906;DHT22;13713;52.552;13.204;2023-08-21T00:11:11;26.40;69.50
25906;DHT22;13713;52.552;13.204;2023-08-21T00:13:37;26.40;69.60
25906;DHT22;13713;52.552;13.204;2023-08-21T00:16:02;26.40;69.60
25906;DHT22;13713;52.552;13.204;2023-08-21T00:18:28;26.40;70.40
25906;DHT22;13713;52.552;13.204;2023-08-21T00:20:54;26.40;69.60
25906;DHT22;13713;52.552;13.204;2023-08-21T00:23:19;26.40;69.70
25906;DHT22;13713;52.552;13.204;2023-08-21T00:25:46;26.40;69.70
25906;DHT22;13713;52.552;13.204;2023-08-21T00:28:11;26.40;69.70
25906;DHT22;13713;52.552;13.204;2023-08-21T00:30:37;26.40;69.70
25906;DHT22;13713;52.552;13.204;2023-08-21T00:33:03;26.40;69.70
25906;DHT22;13713;52.552;13.204;2023-08-21T00:35:28;26.40;69.70
25906;DHT22;13713;52.552;13.204;2023-08-21T00:37:54;26.40;69.70
25906;DHT22;13713;52.552;13.204;2023-08-21T00:40:20;26.40;69.80
25906;DHT22;13713;52.552;13.204;2023-08-21T00:42:45;26.40;69.80
25906;DHT22;13713;52.552;13.204;2023-08-21T00:45:11;26.40;69.80
25906;DHT22;13713;52.552;13.204;2023-08-21T00:47:37;26.40;69.80
25906;DHT22;13713;52.552;13.204;2023-08-21T00:50:02;26.40;69.90
25906;DHT22;13713;52.552;13.204;2023-08-21T00:52:28;26.40;69.90
25906;DHT22;13713;52.552;13.204;2023-08-21T00:54:54;26.40;69.90
25906;DHT22;13713;52.552;13.204;2023-08-21T00:57:20;26.40;69.90
25906;DHT22;13713;52.552;13.204;2023-08-21T00:59:46;26.40;69.90
25906;DHT22;13713;52.552;13.204;2023-08-21T01:02:12;26.40;70.00
25906;DHT22;13713;52.552;13.204;2023-08-21T01:04:38;26.40;69.90
25906;DHT22;13713;52.552;13.204;2023-08-21T01:07:03;26.40;70.00
25906;DHT22;13713;52.552;13.204;2023-08-21T01:09:53;26.40;70.00
25906;DHT22;13713;52.552;13.204;2023-08-21T01:14:54;26.40;70.00
25906;DHT22;13713;52.552;13.204;2023-08-21T01:17:22;26.40;70.00
25906;DHT22;13713;52.552;13.204;2023-08-21T01:19:49;26.40;70.00
25906;DHT22;13713;52.552;13.204;2023-08-21T01:22:15;26.40;70.00
25906;DHT22;13713;52.552;13.204;2023-08-21T01:24:40;26.40;70.00
25906;DHT22;13713;52.552;13.204;2023-08-21T01:27:06;26.40;70.10
25906;DHT22;13713;52.552;13.204;2023-08-21T01:29:32;26.40;70.00
25906;DHT22;13713;52.552;13.204;2023-08-21T01:32:17;26.40;70.10
25906;DHT22;13713;52.552;13.204;2023-08-21T01:34:46;26.40;70.00
25906;DHT22;13713;52.552;13.204;2023-08-21T01:37:12;26.40;70.10
25906;DHT22;13713;52.552;13.204;2023-08-21T01:39:38;26.40;70.10
25906;DHT22;13713;52.552;13.204;2023-08-21T01:42:05;26.40;70.10
25906;DHT22;13713;52.552;13.204;2023-08-21T01:44:30;26.40;70.10
25906;DHT22;13713;52.552;13.204;2023-08-21T01:46:56;26.40;70.10
25906;DHT22;13713;52.552;13.204;2023-08-21T01:49:21;26.40;70.10
25906;DHT22;13713;52.552;13.204;2023-08-21T01:51:47;26.40;70.10
25906;DHT22;13713;52.552;13.204;2023-08-21T01:54:12;26.40;70.10
25906;DHT22;13713;52.552;13.204;2023-08-21T01:56:38;26.40;70.10
25906;DHT22;13713;52.552;13.204;2023-08-21T01:59:04;26.40;70.20
25906;DHT22;13713;52.552;13.204;2023-08-21T02:01:30;26.40;70.20
25906;DHT22;13713;52.552;13.204;2023-08-21T02:03:56;26.40;70.20
25906;DHT22;13713;52.552;13.204;2023-08-21T02:06:21;26.40;70.20
25906;DHT22;13713;52.552;13.204;2023-08-21T02:08:47;26.30;70.10
25906;DHT22;13713;52.552;13.204;2023-08-21T02:11:12;26.40;70.20
25906;DHT22;13713;52.552;13.204;2023-08-21T02:13:38;26.30;70.10
25906;DHT22;13713;52.552;13.204;2023-08-21T02:16:03;26.30;70.10
25906;DHT22;13713;52.552;13.204;2023-08-21T02:18:29;26.30;70.10
25906;DHT22;13713;52.552;13.204;2023-08-21T02:20:56;26.30;70.10
25906;DHT22;13713;52.552;13.204;2023-08-21T02:23:22;26.30;70.20
25906;DHT22;13713;52.552;13.204;2023-08-21T02:25:49;26.30;70.10
25906;DHT22;13713;52.552;13.204;2023-08-21T02:28:16;26.30;70.10
25906;DHT22;13713;52.552;13.204;2023-08-21T02:30:41;26.30;70.20
25906;DHT22;13713;52.552;13.204;2023-08-21T02:33:07;26.30;70.20
25906;DHT22;13713;52.552;13.204;2023-08-21T02:35:33;26.30;70.20
25906;DHT22;13713;52.552;13.204;2023-08-21T02:37:58;26.30;70.20
25906;DHT22;13713;52.552;13.204;2023-08-21T02:40:25;26.30;70.20
25906;DHT22;13713;52.552;13.204;2023-08-21T02:42:50;26.30;70.20
25906;DHT22;13713;52.552;13.204;2023-08-21T02:45:16;26.30;70.20
25906;DHT22;13713;52.552;13.204;2023-08-21T02:47:42;26.30;70.20
25906;DHT22;13713;52.552;13.204;2023-08-21T02:50:08;26.30;70.20
25906;DHT22;13713;52.552;13.204;2023-08-21T02:52:34;26.30;70.20
25906;DHT22;13713;52.552;13.204;2023-08-21T02:55:00;26.30;70.30
25906;DHT22;13713;52.552;13.204;2023-08-21T02:57:26;26.30;70.30
25906;DHT22;13713;52.552;13.204;2023-08-21T02:59:52;26.30;70.30
25906;DHT22;13713;52.552;13.204;2023-08-21T03:02:18;26.30;70.30
25906;DHT22;13713;52.552;13.204;2023-08-21T03:04:44;26.30;70.30
25906;DHT22;13713;52.552;13.204;2023-08-21T03:07:09;26.30;70.30
25906;DHT22;13713;52.552;13.204;2023-08-21T03:09:36;26.30;70.40
25906;DHT22;13713;52.552;13.204;2023-08-21T03:12:02;26.30;70.40
25906;DHT22;13713;52.552;13.204;2023-08-21T03:14:28;26.30;70.30
25906;DHT22;13713;52.552;13.204;2023-08-21T03:16:53;26.30;70.40
25906;DHT22;13713;52.552;13.204;2023-08-21T03:19:19;26.30;70.40
25906;DHT22;13713;52.552;13.204;2023-08-21T03:21:45;26.30;70.40
25906;DHT22;13713;52.552;13.204;2023-08-21T03:24:10;26.30;70.40
25906;DHT22;13713;52.552;13.204;2023-08-21T03:26:36;26.30;70.40
25906;DHT22;13713;52.552;13.204;2023-08-21T03:29:02;26.30;70.40
25906;DHT22;13713;52.552;13.204;2023-08-21T03:31:27;26.30;70.40
25906;DHT22;13713;52.552;13.204;2023-08-21T03:33:53;26.30;70.40
25906;DHT22;13713;52.552;13.204;2023-08-21T03:36:21;26.30;70.40
25906;DHT22;13713;52.552;13.204;2023-08-21T03:38:48;26.30;70.40
25906;DHT22;13713;52.552;13.204;2023-08-21T03:41:13;26.30;70.40
25906;DHT22;13713;52.552;13.204;2023-08-21T03:43:40;26.30;70.40
25906;DHT22;13713;52.552;13.204;2023-08-21T03:46:05;26.30;70.50
25906;DHT22;13713;52.552;13.204;2023-08-21T03:48:31;26.30;70.50
25906;DHT22;13713;52.552;13.204;2023-08-21T03:50:57;26.30;70.50
25906;DHT22;13713;52.552;13.204;2023-08-21T03:53:22;26.30;70.50
25906;DHT22;13713;52.552;13.204;2023-08-21T03:55:48;26.30;70.50
25906;DHT22;13713;52.552;13.204;2023-08-21T03:58:13;26.30;70.50
25906;DHT22;13713;52.552;13.204;2023-08-21T04:00:40;26.30;70.50
25906;DHT22;13713;52.552;13.204;2023-08-21T04:03:05;26.20;70.50
25906;DHT22;13713;52.552;13.204;2023-08-21T04:05:31;26.30;70.60
25906;DHT22;13713;52.552;13.204;2023-08-21T04:07:56;26.30;70.60
25906;DHT22;13713;52.552;13.204;2023-08-21T04:10:22;26.30;70.70
25906;DHT22;13713;52.552;13.204;2023-08-21T04:12:47;26.30;70.60
25906;DHT22;13713;52.552;13.204;2023-08-21T04:15:13;26.30;70.60
25906;DHT22;13713;52.552;13.204;2023-08-21T04:17:39;26.30;70.60
25906;DHT22;13713;52.552;13.204;2023-08-21T04:20:04;26.30;70.90
25906;DHT22;13713;52.552;13.204;2023-08-21T04:22:30;26.30;71.10
25906;DHT22;13713;52.552;13.204;2023-08-21T04:24:56;26.30;71.10
25906;DHT22;13713;52.552;13.204;2023-08-21T04:27:21;26.30;71.20
25906;DHT22;13713;52.552;13.204;2023-08-21T04:29:47;26.30;71.60
25906;DHT22;13713;52.552;13.204;2023-08-21T04:32:12;26.20;71.60
25906;DHT22;13713;52.552;13.204;2023-08-21T04:34:40;26.20;71.90
25906;DHT22;13713;52.552;13.204;2023-08-21T04:37:05;26.10;71.90
25906;DHT22;13713;52.552;13.204;2023-08-21T04:39:31;26.10;72.10
25906;DHT22;13713;52.552;13.204;2023-08-21T04:41:57;26.10;72.20
25906;DHT22;13713;52.552;13.204;2023-08-21T04:44:23;26.10;72.40
25906;DHT22;13713;52.552;13.204;2023-08-21T04:46:49;26.10;72.70
25906;DHT22;13713;52.552;13.204;2023-08-21T04:49:18;26.10;72.80
25906;DHT22;13713;52.552;13.204;2023-08-21T04:51:43;26.00;72.90
25906;DHT22;13713;52.552;13.204;2023-08-21T04:54:09;26.00;73.00
25906;DHT22;13713;52.552;13.204;2023-08-21T04:56:35;26.00;73.10
25906;DHT22;13713;52.552;13.204;2023-08-21T04:59:01;26.00;73.30
25906;DHT22;13713;52.552;13.204;2023-08-21T05:01:29;26.00;73.30
25906;DHT22;13713;52.552;13.204;2023-08-21T05:03:56;26.00;73.40
25906;DHT22;13713;52.552;13.204;2023-08-21T05:06:23;26.00;73.50
25906;DHT22;13713;52.552;13.204;2023-08-21T05:08:49;26.00;73.70
25906;DHT22;13713;52.552;13.204;2023-08-21T05:11:15;26.00;73.70
25906;DHT22;13713;52.552;13.204;2023-08-21T05:13:42;26.00;73.80
25906;DHT22;13713;52.552;13.204;2023-08-21T05:16:10;26.00;73.90
25906;DHT22;13713;52.552;13.204;2023-08-21T05:18:37;26.00;74.20
25906;DHT22;13713;52.552;13.204;2023-08-21T05:21:03;25.90;74.20
25906;DHT22;13713;52.552;13.204;2023-08-21T05:23:30;26.00;74.70
25906;DHT22;13713;52.552;13.204;2023-08-21T05:26:00;25.90;74.30
25906;DHT22;13713;52.552;13.204;2023-08-21T05:28:26;25.90;75.20
25906;DHT22;13713;52.552;13.204;2023-08-21T05:30:52;25.90;74.30
25906;DHT22;13713;52.552;13.204;2023-08-21T05:33:19;25.90;74.30
25906;DHT22;13713;52.552;13.204;2023-08-21T05:35:47;25.90;74.40
25906;DHT22;13713;52.552;13.204;2023-08-21T05:38:13;25.90;74.50
25906;DHT22;13713;52.552;13.204;2023-08-21T05:40:40;25.90;74.80
25906;DHT22;13713;52.552;13.204;2023-08-21T05:43:06;25.90;74.80
25906;DHT22;13713;52.552;13.204;2023-08-21T05:45:31;25.90;74.70
25906;DHT22;13713;52.552;13.204;2023-08-21T05:47:58;25.90;74.60
25906;DHT22;13713;52.552;13.204;2023-08-21T05:50:24;25.90;74.50
25906;DHT22;13713;52.552;13.204;2023-08-21T05:52:49;25.90;74.40
25906;DHT22;13713;52.552;13.204;2023-08-21T05:55:15;26.00;74.60
25906;DHT22;13713;52.552;13.204;2023-08-21T05:57:41;25.90;74.60
25906;DHT22;13713;52.552;13.204;2023-08-21T06:00:07;25.90;74.60
25906;DHT22;13713;52.552;13.204;2023-08-21T06:02:40;26.00;74.80
25906;DHT22;13713;52.552;13.204;2023-08-21T06:05:08;26.00;74.80
25906;DHT22;13713;52.552;13.204;2023-08-21T06:07:33;26.00;74.90
25906;DHT22;13713;52.552;13.204;2023-08-21T06:09:59;26.00;75.00
25906;DHT22;13713;52.552;13.204;2023-08-21T06:12:24;26.00;75.10
25906;DHT22;13713;52.552;13.204;2023-08-21T06:14:53;26.10;75.10
25906;DHT22;13713;52.552;13.204;2023-08-21T06:17:18;26.10;75.00
25906;DHT22;13713;52.552;13.204;2023-08-21T06:19:44;26.10;75.00
25906;DHT22;13713;52.552;13.204;2023-08-21T06:22:09;26.10;75.00
25906;DHT22;13713;52.552;13.204;2023-08-21T06:24:35;26.00;75.00
25906;DHT22;13713;52.552;13.204;2023-08-21T06:27:02;26.00;75.20
25906;DHT22;13713;52.552;13.204;2023-08-21T06:29:29;26.00;75.10
25906;DHT22;13713;52.552;13.204;2023-08-21T06:31:55;26.00;75.30
25906;DHT22;13713;52.552;13.204;2023-08-21T06:34:22;26.00;75.30
25906;DHT22;13713;52.552;13.204;2023-08-21T06:36:47;26.10;75.30
25906;DHT22;13713;52.552;13.204;2023-08-21T06:39:13;26.10;75.30
25906;DHT22;13713;52.552;13.204;2023-08-21T06:41:38;26.10;75.20
25906;DHT22;13713;52.552;13.204;2023-08-21T06:44:04;26.00;75.10
25906;DHT22;13713;52.552;13.204;2023-08-21T06:46:30;26.10;75.30
25906;DHT22;13713;52.552;13.204;2023-08-21T06:48:56;26.10;75.30
25906;DHT22;13713;52.552;13.204;2023-08-21T06:51:21;26.10;75.20
25906;DHT22;13713;52.552;13.204;2023-08-21T06:53:47;26.00;75.10
25906;DHT22;13713;52.552;13.204;2023-08-21T06:56:12;26.00;75.00
25906;DHT22;13713;52.552;13.204;2023-08-21T06:58:38;26.00;75.10
25906;DHT22;13713;52.552;13.204;2023-08-21T07:01:03;26.10;75.20
25906;DHT22;13713;52.552;13.204;2023-08-21T07:03:30;26.10;75.10
25906;DHT22;13713;52.552;13.204;2023-08-21T07:05:56;26.00;74.80
25906;DHT22;13713;52.552;13.204;2023-08-21T07:08:22;26.00;74.60
25906;DHT22;13713;52.552;13.204;2023-08-21T07:10:48;26.00;74.60
25906;DHT22;13713;52.552;13.204;2023-08-21T07:13:14;26.00;74.60
25906;DHT22;13713;52.552;13.204;2023-08-21T07:15:39;26.00;74.40
25906;DHT22;13713;52.552;13.204;2023-08-21T07:18:05;26.00;74.50
25906;DHT22;13713;52.552;13.204;2023-08-21T07:20:30;26.00;74.40
25906;DHT22;13713;52.552;13.204;2023-08-21T07:22:56;26.00;74.30
25906;DHT22;13713;52.552;13.204;2023-08-21T07:25:21;26.00;74.10
25906;DHT22;13713;52.552;13.204;2023-08-21T07:27:47;26.00;73.80
25906;DHT22;13713;52.552;13.204;2023-08-21T07:30:13;26.00;73.70
25906;DHT22;13713;52.552;13.204;2023-08-21T07:32:38;26.00;74.30
25906;DHT22;13713;52.552;13.204;2023-08-21T07:35:04;26.10;73.20
25906;DHT22;13713;52.552;13.204;2023-08-21T07:37:30;26.10;72.90
25906;DHT22;13713;52.552;13.204;2023-08-21T07:39:56;26.10;72.50
25906;DHT22;13713;52.552;13.204;2023-08-21T07:42:23;26.10;72.50
25906;DHT22;13713;52.552;13.204;2023-08-21T07:44:48;26.10;72.20
25906;DHT22;13713;52.552;13.204;2023-08-21T07:47:14;26.10;71.90
25906;DHT22;13713;52.552;13.204;2023-08-21T07:49:40;26.10;71.80
25906;DHT22;13713;52.552;13.204;2023-08-21T07:52:05;26.10;71.70
25906;DHT22;13713;52.552;13.204;2023-08-21T07:54:31;26.10;71.30
25906;DHT22;13713;52.552;13.204;2023-08-21T07:56:57;26.10;71.10
25906;DHT22;13713;52.552;13.204;2023-08-21T07:59:22;26.10;70.90
25906;DHT22;13713;52.552;13.204;2023-08-21T08:01:48;26.10;70.90
25906;DHT22;13713;52.552;13.204;2023-08-21T08:04:13;26.10;70.00
25906;DHT22;13713;52.552;13.204;2023-08-21T08:06:39;26.10;70.00
25906;DHT22;13713;52.552;13.204;2023-08-21T08:09:04;26.10;70.10
25906;DHT22;13713;52.552;13.204;2023-08-21T08:11:30;26.10;69.50
25906;DHT22;13713;52.552;13.204;2023-08-21T08:13:55;26.10;68.60
25906;DHT22;13713;52.552;13.204;2023-08-21T08:16:21;26.10;68.50
25906;DHT22;13713;52.552;13.204;2023-08-21T08:18:47;26.10;68.00
25906;DHT22;13713;52.552;13.204;2023-08-21T08:21:12;26.10;68.00
25906;DHT22;13713;52.552;13.204;2023-08-21T08:23:38;26.10;67.10
25906;DHT22;13713;52.552;13.204;2023-08-21T08:26:03;26.10;66.30
25906;DHT22;13713;52.552;13.204;2023-08-21T08:28:29;26.10;67.10
25906;DHT22;13713;52.552;13.204;2023-08-21T08:30:55;26.10;67.20
25906;DHT22;13713;52.552;13.204;2023-08-21T08:33:20;26.10;66.50
25906;DHT22;13713;52.552;13.204;2023-08-21T08:35:46;26.10;65.50
25906;DHT22;13713;52.552;13.204;2023-08-21T08:38:11;26.10;65.00
25906;DHT22;13713;52.552;13.204;2023-08-21T08:40:38;26.10;65.50
25906;DHT22;13713;52.552;13.204;2023-08-21T08:43:06;26.20;65.30
25906;DHT22;13713;52.552;13.204;2023-08-21T08:45:32;26.20;64.70
25906;DHT22;13713;52.552;13.204;2023-08-21T08:48:01;26.20;64.40
25906;DHT22;13713;52.552;13.204;2023-08-21T08:50:30;26.20;64.40
25906;DHT22;13713;52.552;13.204;2023-08-21T08:52:56;26.20;63.80
25906;DHT22;13713;52.552;13.204;2023-08-21T08:55:22;26.20;63.50
25906;DHT22;13713;52.552;13.204;2023-08-21T08:57:48;26.20;62.70
25906;DHT22;13713;52.552;13.204;2023-08-21T09:00:14;26.20;62.60
25906;DHT22;13713;52.552;13.204;2023-08-21T09:02:40;26.20;62.80
25906;DHT22;13713;52.552;13.204;2023-08-21T09:05:06;26.20;62.30
25906;DHT22;13713;52.552;13.204;2023-08-21T09:07:33;26.30;61.80
25906;DHT22;13713;52.552;13.204;2023-08-21T09:09:59;26.30;61.70
25906;DHT22;13713;52.552;13.204;2023-08-21T09:12:25;26.20;61.10
25906;DHT22;13713;52.552;13.204;2023-08-21T09:14:51;26.20;61.10
25906;DHT22;13713;52.552;13.204;2023-08-21T09:17:16;26.20;61.00
25906;DHT22;13713;52.552;13.204;2023-08-21T09:19:42;26.20;60.20
25906;DHT22;13713;52.552;13.204;2023-08-21T09:22:09;26.20;60.30
25906;DHT22;13713;52.552;13.204;2023-08-21T09:24:35;26.20;60.60
25906;DHT22;13713;52.552;13.204;2023-08-21T09:27:01;26.30;60.60
25906;DHT22;13713;52.552;13.204;2023-08-21T09:29:27;26.30;60.50
25906;DHT22;13713;52.552;13.204;2023-08-21T09:32:02;26.30;60.40
25906;DHT22;13713;52.552;13.204;2023-08-21T09:34:33;26.30;59.90
25906;DHT22;13713;52.552;13.204;2023-08-21T09:36:58;26.40;59.90
25906;DHT22;13713;52.552;13.204;2023-08-21T09:39:24;26.40;60.30
25906;DHT22;13713;52.552;13.204;2023-08-21T09:41:56;26.40;60.10
25906;DHT22;13713;52.552;13.204;2023-08-21T09:44:21;26.40;60.30
25906;DHT22;13713;52.552;13.204;2023-08-21T09:46:50;26.40;60.00
25906;DHT22;13713;52.552;13.204;2023-08-21T09:49:15;26.40;59.70
25906;DHT22;13713;52.552;13.204;2023-08-21T09:51:42;26.50;59.90
25906;DHT22;13713;52.552;13.204;2023-08-21T09:54:10;26.50;59.70
25906;DHT22;13713;52.552;13.204;2023-08-21T09:56:36;26.50;59.50
25906;DHT22;13713;52.552;13.204;2023-08-21T09:59:02;26.50;59.80
25906;DHT22;13713;52.552;13.204;2023-08-21T10:01:28;26.60;59.70
25906;DHT22;13713;52.552;13.204;2023-08-21T10:03:54;26.60;59.90
25906;DHT22;13713;52.552;13.204;2023-08-21T10:06:22;26.60;59.90
25906;DHT22;13713;52.552;13.204;2023-08-21T10:08:50;26.60;59.10
25906;DHT22;13713;52.552;13.204;2023-08-21T10:11:18;26.60;59.20
25906;DHT22;13713;52.552;13.204;2023-08-21T10:13:44;26.60;59.10
25906;DHT22;13713;52.552;13.204;2023-08-21T10:16:10;26.60;59.10
25906;DHT22;13713;52.552;13.204;2023-08-21T10:18:36;26.60;59.10
25906;DHT22;13713;52.552;13.204;2023-08-21T10:23:37;26.70;58.80
25906;DHT22;13713;52.552;13.204;2023-08-21T10:26:05;26.70;58.70
25906;DHT22;13713;52.552;13.204;2023-08-21T10:33:57;26.80;58.70
25906;DHT22;13713;52.552;13.204;2023-08-21T10:41:53;26.80;58.60
25906;DHT22;13713;52.552;13.204;2023-08-21T10:47:20;26.90;58.70
25906;DHT22;13713;52.552;13.204;2023-08-21T10:49:47;26.90;58.50
25906;DHT22;13713;52.552;13.204;2023-08-21T10:52:13;26.90;58.30
25906;DHT22;13713;52.552;13.204;2023-08-21T10:54:57;26.90;58.20
25906;DHT22;13713;52.552;13.204;2023-08-21T10:57:24;26.90;58.40
25906;DHT22;13713;52.552;13.204;2023-08-21T10:59:53;26.90;58.20
25906;DHT22;13713;52.552;13.204;2023-08-21T11:02:19;26.90;58.10
25906;DHT22;13713;52.552;13.204;2023-08-21T11:04:44;26.90;58.20
25906;DHT22;13713;52.552;13.204;2023-08-21T11:07:11;26.90;58.00
25906;DHT22;13713;52.552;13.204;2023-08-21T11:09:38;27.00;58.00
25906;DHT22;13713;52.552;13.204;2023-08-21T11:12:12;27.00;58.10
25906;DHT22;13713;52.552;13.204;2023-08-21T11:14:38;26.90;58.00
25906;DHT22;13713;52.552;13.204;2023-08-21T11:17:04;26.90;57.90
25906;DHT22;13713;52.552;13.204;2023-08-21T11:19:30;26.90;58.00
25906;DHT22;13713;52.552;13.204;2023-08-21T11:21:56;26.90;57.80
25906;DHT22;13713;52.552;13.204;2023-08-21T11:24:21;26.90;57.80
25906;DHT22;13713;52.552;13.204;2023-08-21T11:26:47;27.00;57.60
25906;DHT22;13713;52.552;13.204;2023-08-21T11:29:13;26.90;57.70
25906;DHT22;13713;52.552;13.204;2023-08-21T11:31:38;26.90;57.50
25906;DHT22;13713;52.552;13.204;2023-08-21T11:34:04;26.90;57.70
25906;DHT22;13713;52.552;13.204;2023-08-21T11:36:29;27.00;57.60
25906;DHT22;13713;52.552;13.204;2023-08-21T11:38:58;26.90;57.30
25906;DHT22;13713;52.552;13.204;2023-08-21T11:41:25;27.00;57.40
25906;DHT22;13713;52.552;13.204;2023-08-21T11:43:51;27.00;57.20
25906;DHT22;13713;52.552;13.204;2023-08-21T11:46:17;26.90;57.10
25906;DHT22;13713;52.552;13.204;2023-08-21T11:48:44;27.00;57.00
25906;DHT22;13713;52.552;13.204;2023-08-21T11:51:10;27.00;56.60
25906;DHT22;13713;52.552;13.204;2023-08-21T11:56:02;27.00;56.90
25906;DHT22;13713;52.552;13.204;2023-08-21T11:58:27;27.00;56.60
25906;DHT22;13713;52.552;13.204;2023-08-21T12:00:53;27.00;56.90
25906;DHT22;13713;52.552;13.204;2023-08-21T12:03:19;27.10;56.40
25906;DHT22;13713;52.552;13.204;2023-08-21T12:05:45;27.00;56.40
25906;DHT22;13713;52.552;13.204;2023-08-21T12:08:10;27.10;56.70
25906;DHT22;13713;52.552;13.204;2023-08-21T12:10:36;27.10;56.60
25906;DHT22;13713;52.552;13.204;2023-08-21T12:13:02;27.10;56.70
25906;DHT22;13713;52.552;13.204;2023-08-21T12:15:27;27.10;56.50
25906;DHT22;13713;52.552;13.204;2023-08-21T12:17:53;27.10;56.50
25906;DHT22;13713;52.552;13.204;2023-08-21T12:20:18;27.10;56.40
25906;DHT22;13713;52.552;13.204;2023-08-21T12:22:44;27.20;56.50
25906;DHT22;13713;52.552;13.204;2023-08-21T12:25:09;27.10;56.20
25906;DHT22;13713;52.552;13.204;2023-08-21T12:27:36;27.20;56.20
25906;DHT22;13713;52.552;13.204;2023-08-21T12:30:01;27.20;56.30
25906;DHT22;13713;52.552;13.204;2023-08-21T12:32:27;27.20;56.00
25906;DHT22;13713;52.552;13.204;2023-08-21T12:34:52;27.20;56.10
25906;DHT22;13713;52.552;13.204;2023-08-21T12:37:18;27.20;56.00
25906;DHT22;13713;52.552;13.204;2023-08-21T12:39:44;27.20;56.10
25906;DHT22;13713;52.552;13.204;2023-08-21T12:42:09;27.30;56.10
25906;DHT22;13713;52.552;13.204;2023-08-21T12:44:35;27.30;56.00
25906;DHT22;13713;52.552;13.204;2023-08-21T12:47:01;27.30;55.70
25906;DHT22;13713;52.552;13.204;2023-08-21T12:49:26;27.30;56.00
25906;DHT22;13713;52.552;13.204;2023-08-21T12:51:52;27.30;55.80
25906;DHT22;13713;52.552;13.204;2023-08-21T12:54:18;27.30;55.20
25906;DHT22;13713;52.552;13.204;2023-08-21T12:56:43;27.30;55.20
25906;DHT22;13713;52.552;13.204;2023-08-21T12:59:09;27.30;55.20
25906;DHT22;13713;52.552;13.204;2023-08-21T13:01:34;27.30;55.10
25906;DHT22;13713;52.552;13.204;2023-08-21T13:04:01;27.30;55.10
25906;DHT22;13713;52.552;13.204;2023-08-21T13:06:26;27.30;55.10
25906;DHT22;13713;52.552;13.204;2023-08-21T13:08:52;27.30;55.00
25906;DHT22;13713;52.552;13.204;2023-08-21T13:11:18;27.30;54.90
25906;DHT22;13713;52.552;13.204;2023-08-21T13:13:44;27.30;55.00
25906;DHT22;13713;52.552;13.204;2023-08-21T13:16:09;27.30;55.20
25906;DHT22;13713;52.552;13.204;2023-08-21T13:18:35;27.40;55.10
25906;DHT22;13713;52.552;13.204;2023-08-21T13:21:00;27.30;54.50
25906;DHT22;13713;52.552;13.204;2023-08-21T13:23:28;27.30;54.50
25906;DHT22;13713;52.552;13.204;2023-08-21T13:25:54;27.30;54.80
25906;DHT22;13713;52.552;13.204;2023-08-21T13:28:19;27.30;54.80
25906;DHT22;13713;52.552;13.204;2023-08-21T13:30:45;27.30;54.10
25906;DHT22;13713;52.552;13.204;2023-08-21T13:33:10;27.30;53.70
25906;DHT22;13713;52.552;13.204;2023-08-21T13:35:36;27.30;53.60
25906;DHT22;13713;52.552;13.204;2023-08-21T13:38:02;27.30;53.60
25906;DHT22;13713;52.552;13.204;2023-08-21T13:40:29;27.30;53.20
25906;DHT22;13713;52.552;13.204;2023-08-21T13:42:54;27.20;53.20
25906;DHT22;13713;52.552;13.204;2023-08-21T13:45:20;27.20;53.30
25906;DHT22;13713;52.552;13.204;2023-08-21T13:47:46;27.20;52.50
25906;DHT22;13713;52.552;13.204;2023-08-21T13:50:16;27.20;52.80
25906;DHT22;13713;52.552;13.204;2023-08-21T13:52:42;27.20;52.80
25906;DHT22;13713;52.552;13.204;2023-08-21T13:55:10;27.20;52.60
25906;DHT22;13713;52.552;13.204;2023-08-21T13:57:36;27.20;52.30
25906;DHT22;13713;52.552;13.204;2023-08-21T14:00:03;27.20;52.50
25906;DHT22;13713;52.552;13.204;2023-08-21T14:02:37;27.20;52.40
25906;DHT22;13713;52.552;13.204;2023-08-21T14:05:03;27.20;52.60
25906;DHT22;13713;52.552;13.204;2023-08-21T14:07:33;27.20;52.00
25906;DHT22;13713;52.552;13.204;2023-08-21T14:09:59;27.20;51.70
25906;DHT22;13713;52.552;13.204;2023-08-21T14:12:25;27.20;51.40
25906;DHT22;13713;52.552;13.204;2023-08-21T14:14:50;27.20;51.80
25906;DHT22;13713;52.552;13.204;2023-08-21T14:17:16;27.20;51.60
25906;DHT22;13713;52.552;13.204;2023-08-21T14:19:42;27.20;51.40
25906;DHT22;13713;52.552;13.204;2023-08-21T14:22:07;27.20;51.40
25906;DHT22;13713;52.552;13.204;2023-08-21T14:24:33;27.20;51.50
25906;DHT22;13713;52.552;13.204;2023-08-21T14:26:58;27.20;51.40
25906;DHT22;13713;52.552;13.204;2023-08-21T14:29:24;27.20;51.10
25906;DHT22;13713;52.552;13.204;2023-08-21T14:31:50;27.20;51.10
25906;DHT22;13713;52.552;13.204;2023-08-21T14:34:19;27.20;50.90
25906;DHT22;13713;52.552;13.204;2023-08-21T14:36:45;27.20;51.00
25906;DHT22;13713;52.552;13.204;2023-08-21T14:39:11;27.20;51.00
25906;DHT22;13713;52.552;13.204;2023-08-21T14:41:43;27.20;51.00
25906;DHT22;13713;52.552;13.204;2023-08-21T14:44:08;27.20;50.90
25906;DHT22;13713;52.552;13.204;2023-08-21T14:46:34;27.20;50.80
25906;DHT22;13713;52.552;13.204;2023-08-21T14:49:00;27.20;50.80
25906;DHT22;13713;52.552;13.204;2023-08-21T14:51:25;27.20;51.00
25906;DHT22;13713;52.552;13.204;2023-08-21T14:53:51;27.20;51.20
25906;DHT22;13713;52.552;13.204;2023-08-21T14:56:16;27.20;51.40
25906;DHT22;13713;52.552;13.204;2023-08-21T14:58:42;27.20;51.60
25906;DHT22;13713;52.552;13.204;2023-08-21T15:01:11;27.20;51.70
25906;DHT22;13713;52.552;13.204;2023-08-21T15:03:36;27.30;51.90
25906;DHT22;13713;52.552;13.204;2023-08-21T15:06:02;27.20;52.00
25906;DHT22;13713;52.552;13.204;2023-08-21T15:08:28;27.30;52.20
25906;DHT22;13713;52.552;13.204;2023-08-21T15:10:53;27.30;52.30
25906;DHT22;13713;52.552;13.204;2023-08-21T15:13:19;27.30;52.40
25906;DHT22;13713;52.552;13.204;2023-08-21T15:15:44;27.30;52.50
25906;DHT22;13713;52.552;13.204;2023-08-21T15:18:10;27.30;52.60
25906;DHT22;13713;52.552;13.204;2023-08-21T15:20:35;27.30;52.70
25906;DHT22;13713;52.552;13.204;2023-08-21T15:23:01;27.30;52.80
25906;DHT22;13713;52.552;13.204;2023-08-21T15:25:26;27.30;52.90
25906;DHT22;13713;52.552;13.204;2023-08-21T15:27:52;27.30;52.90
25906;DHT22;13713;52.552;13.204;2023-08-21T15:30:18;27.30;53.00